IAD weather

Washington Dulles International Airport
Washington, District of Columbia, United States

Public forecast

Using degrees Fahrenheit for public forecast. Weather courtesy of forecast.io.

METAR (pilot weather report)

Retrieved 2018/02/18 22:52 UTC (53 minutes ago):

KIAD 182252Z 04005KT 10SM SCT250 06/M01 A3041 RMK AO2 SLP300 T00611011 $

TAF (pilot weather forecast)

Retrieved 2018/02/18 18:46 UTC (5 hours ago):

TAF KIAD 181744Z 1818/1924 29008KT P6SM SCT050 FM182200 21006KT P6SM FEW250 FM190000 13005KT P6SM FEW250 FM191200 17006KT P6SM BKN030 FM191500 18008KT P6SM BKN015 FM192200 18009KT P6SM BKN060